Time;durP1;ratioP1;P1;durP2;ratioP2;P2;SDS_P1;SDS_P2;PMS_P1;PMS_P2;Temp;Humidity;BMP_temperature;BMP_pressure;BME280_temperature;BME280_humidity;BME280_pressure;Samples;Min_cycle;Max_cycle;Signal;HPM_P1;HPM_P2
2021/09/28 00:02:23;;;;;;;11.52;4.50;;;;;;;;;;5111261;28;20020;-69
2021/09/28 00:08:03;;;;;;;9.35;3.78;;;;;;;;;;5132284;27;20313;-66
2021/09/28 00:10:31;;;;;;;8.68;3.35;;;;;;;;;;5131811;27;20028;-67
2021/09/28 00:12:57;;;;;;;12.93;3.97;;;;;;;;;;5131787;27;20020;-69
2021/09/28 00:15:24;;;;;;;9.80;3.95;;;;;;;;;;5131664;28;20019;-66
2021/09/28 00:17:50;;;;;;;12.05;4.25;;;;;;;;;;5131653;28;20023;-66
2021/09/28 00:20:16;;;;;;;12.65;4.93;;;;;;;;;;5131229;28;20474;-66
2021/09/28 00:26:51;;;;;;;8.65;3.85;;;;;;;;;;5111324;27;20508;-67
2021/09/28 00:30:15;;;;;;;10.80;4.68;;;;;;;;;;5111323;27;20516;-66
2021/09/28 00:32:41;;;;;;;8.18;3.47;;;;;;;;;;5109929;28;20047;-69
2021/09/28 00:35:07;;;;;;;10.57;4.55;;;;;;;;;;5110875;28;20027;-67
2021/09/28 00:37:34;;;;;;;12.57;4.03;;;;;;;;;;5111287;28;20392;-66
2021/09/28 00:40:00;;;;;;;10.68;3.75;;;;;;;;;;5109463;28;20417;-67
2021/09/28 00:42:26;;;;;;;8.73;3.47;;;;;;;;;;5109855;28;20034;-68
2021/09/28 00:46:41;;;;;;;10.98;3.70;;;;;;;;;;5111691;27;20388;-67
2021/09/28 00:49:08;;;;;;;8.15;3.20;;;;;;;;;;5110920;28;20531;-67
2021/09/28 00:51:34;;;;;;;9.90;3.53;;;;;;;;;;5111223;28;20107;-67
2021/09/28 00:54:03;;;;;;;7.32;3.83;;;;;;;;;;5110867;28;20465;-67
2021/09/28 00:58:19;;;;;;;11.43;3.85;;;;;;;;;;5111560;27;20316;-67
2021/09/28 01:02:42;;;;;;;7.40;3.50;;;;;;;;;;5110968;27;20408;-66
2021/09/28 01:05:09;;;;;;;7.43;3.10;;;;;;;;;;5111156;28;20077;-66
2021/09/28 01:07:35;;;;;;;7.75;3.25;;;;;;;;;;5111157;28;20020;-66
2021/09/28 01:11:58;;;;;;;6.88;3.15;;;;;;;;;;5111547;27;20461;-66
2021/09/28 01:14:24;;;;;;;11.50;3.53;;;;;;;;;;5111463;28;20028;-67
2021/09/28 01:17:53;;;;;;;12.73;3.67;;;;;;;;;;5111358;27;20901;-66
2021/09/28 01:20:19;;;;;;;10.95;4.00;;;;;;;;;;5111260;28;20666;-67
2021/09/28 01:22:46;;;;;;;8.10;4.10;;;;;;;;;;5110987;28;20032;-67
2021/09/28 01:25:12;;;;;;;11.35;4.50;;;;;;;;;;5111773;28;20028;-69
2021/09/28 01:27:39;;;;;;;11.70;4.50;;;;;;;;;;5109904;28;20051;-67
2021/09/28 01:30:47;;;;;;;13.75;4.70;;;;;;;;;;5110751;27;20424;-66
2021/09/28 01:33:13;;;;;;;9.00;4.40;;;;;;;;;;5109985;28;20024;-67
2021/09/28 01:35:40;;;;;;;8.43;3.47;;;;;;;;;;5111178;28;20058;-66
2021/09/28 01:38:06;;;;;;;11.85;4.07;;;;;;;;;;5110810;28;20020;-67
2021/09/28 01:42:25;;;;;;;8.88;3.75;;;;;;;;;;5111408;27;20962;-68
2021/09/28 01:45:42;;;;;;;8.95;3.83;;;;;;;;;;5112144;27;20388;-66
2021/09/28 01:48:09;;;;;;;8.32;3.25;;;;;;;;;;5111501;28;20111;-67
2021/09/28 01:50:36;;;;;;;10.68;4.15;;;;;;;;;;5110863;28;20503;-66
2021/09/28 01:53:02;;;;;;;9.55;4.20;;;;;;;;;;5111393;28;20102;-67
2021/09/28 01:55:28;;;;;;;12.00;4.10;;;;;;;;;;5111108;28;20028;-67
2021/09/28 01:57:58;;;;;;;12.55;5.20;;;;;;;;;;5110691;28;20024;-67
2021/09/28 02:02:20;;;;;;;10.63;4.05;;;;;;;;;;5111788;27;20749;-67
2021/09/28 02:06:21;;;;;;;9.40;3.25;;;;;;;;;;5111037;27;20393;-66
2021/09/28 02:08:48;;;;;;;10.98;4.60;;;;;;;;;;5109943;28;20487;-66
2021/09/28 02:11:14;;;;;;;10.90;4.35;;;;;;;;;;5110869;28;20140;-67
2021/09/28 02:13:40;;;;;;;10.52;4.78;;;;;;;;;;5111366;28;20016;-67
2021/09/28 02:16:25;;;;;;;8.52;4.13;;;;;;;;;;5111267;27;20397;-66
2021/09/28 02:18:51;;;;;;;9.07;4.13;;;;;;;;;;5110909;28;20025;-67
2021/09/28 02:21:17;;;;;;;11.07;4.47;;;;;;;;;;5111294;28;20023;-67
2021/09/28 02:24:58;;;;;;;10.93;3.78;;;;;;;;;;5071014;28;20411;-66
2021/09/28 02:27:55;;;;;;;7.03;3.53;;;;;;;;;;5111254;27;20585;-67
2021/09/28 02:30:21;;;;;;;11.40;3.97;;;;;;;;;;5111242;28;20427;-67
2021/09/28 02:32:47;;;;;;;7.85;3.90;;;;;;;;;;5111068;28;20081;-67
2021/09/28 02:35:13;;;;;;;9.35;4.47;;;;;;;;;;5111134;28;20384;-67
2021/09/28 02:37:40;;;;;;;11.82;4.38;;;;;;;;;;5111027;28;20054;-67
2021/09/28 02:40:06;;;;;;;12.55;4.40;;;;;;;;;;5110653;28;20024;-67
2021/09/28 02:42:33;;;;;;;8.27;4.03;;;;;;;;;;5111027;28;20496;-67
2021/09/28 02:44:59;;;;;;;10.93;4.30;;;;;;;;;;5110963;28;20055;-67
2021/09/28 02:47:26;;;;;;;10.18;3.38;;;;;;;;;;5110581;28;20039;-66
2021/09/28 02:49:53;;;;;;;9.80;3.58;;;;;;;;;;5110876;28;20050;-66
2021/09/28 02:53:39;;;;;;;10.27;4.10;;;;;;;;;;5111315;27;20882;-67
2021/09/28 02:56:53;;;;;;;10.75;4.90;;;;;;;;;;5086524;27;20752;-67
2021/09/28 02:59:19;;;;;;;7.90;4.18;;;;;;;;;;5070095;28;20044;-67
2021/09/28 03:03:54;;;;;;;12.70;4.55;;;;;;;;;;5111193;27;20831;-67
2021/09/28 03:09:50;;;;;;;14.20;4.30;;;;;;;;;;5070328;28;20737;-66
2021/09/28 03:12:16;;;;;;;10.38;3.50;;;;;;;;;;5069389;28;20033;-67
2021/09/28 03:14:42;;;;;;;10.30;3.63;;;;;;;;;;5070338;28;20449;-67
2021/09/28 03:17:08;;;;;;;10.60;3.95;;;;;;;;;;5071014;28;20033;-67
2021/09/28 03:21:02;;;;;;;20.30;4.40;;;;;;;;;;5111250;27;20405;-67
2021/09/28 03:23:28;;;;;;;10.55;3.35;;;;;;;;;;5110841;28;20024;-67
2021/09/28 03:25:54;;;;;;;9.80;3.70;;;;;;;;;;5111188;28;20028;-67
2021/09/28 03:28:20;;;;;;;8.43;3.33;;;;;;;;;;5109842;28;20020;-67
2021/09/28 03:32:08;;;;;;;16.05;4.72;;;;;;;;;;5071304;28;20415;-67
2021/09/28 03:34:34;;;;;;;8.55;3.97;;;;;;;;;;5070604;28;20108;-66
2021/09/28 03:38:56;;;;;;;10.73;4.18;;;;;;;;;;5071145;28;20395;-66
2021/09/28 03:43:06;;;;;;;9.40;4.38;;;;;;;;;;5110944;27;20397;-67
2021/09/28 03:46:00;;;;;;;13.25;3.90;;;;;;;;;;5070678;28;20403;-67
2021/09/28 03:48:27;;;;;;;8.73;3.92;;;;;;;;;;5070732;28;20025;-67
2021/09/28 03:50:53;;;;;;;9.32;4.93;;;;;;;;;;5070354;28;20025;-67
2021/09/28 03:55:12;;;;;;;8.55;3.63;;;;;;;;;;5111199;27;20412;-67
2021/09/28 03:59:46;;;;;;;8.63;3.88;;;;;;;;;;5111698;27;20393;-67
2021/09/28 04:02:13;;;;;;;8.95;4.28;;;;;;;;;;5111082;28;20036;-66
2021/09/28 04:04:39;;;;;;;12.15;5.85;;;;;;;;;;5110983;28;20030;-67
2021/09/28 04:07:05;;;;;;;12.90;5.05;;;;;;;;;;5111237;28;20537;-67
2021/09/28 04:09:31;;;;;;;12.27;5.30;;;;;;;;;;5109860;28;20397;-68
2021/09/28 04:11:57;;;;;;;7.65;4.03;;;;;;;;;;5110656;28;20024;-68
2021/09/28 04:14:24;;;;;;;13.32;5.53;;;;;;;;;;5111025;28;20016;-67
2021/09/28 04:16:50;;;;;;;16.38;6.03;;;;;;;;;;5110971;28;20044;-68
2021/09/28 04:19:16;;;;;;;11.40;4.80;;;;;;;;;;5110530;28;20096;-68
2021/09/28 04:21:43;;;;;;;9.68;4.57;;;;;;;;;;5109554;28;20076;-68
2021/09/28 04:26:08;;;;;;;15.15;5.47;;;;;;;;;;5111267;27;20396;-69
2021/09/28 04:28:35;;;;;;;10.70;5.45;;;;;;;;;;5111316;28;20020;-69
2021/09/28 04:33:59;;;;;;;15.15;5.97;;;;;;;;;;5110960;27;20673;-67
2021/09/28 04:36:42;;;;;;;10.18;5.80;;;;;;;;;;5111581;27;20450;-68
2021/09/28 04:39:08;;;;;;;13.65;5.32;;;;;;;;;;5110850;28;20030;-68
2021/09/28 04:42:00;;;;;;;9.35;4.90;;;;;;;;;;5111402;27;20502;-67
2021/09/28 04:47:14;;;;;;;14.05;5.60;;;;;;;;;;5110849;27;20509;-69
2021/09/28 04:49:40;;;;;;;13.77;5.65;;;;;;;;;;5109975;28;20504;-67
2021/09/28 04:52:07;;;;;;;13.93;5.88;;;;;;;;;;5111181;28;20020;-66
2021/09/28 04:54:46;;;;;;;9.02;5.03;;;;;;;;;;5070579;28;20391;-68
2021/09/28 04:57:12;;;;;;;11.60;5.72;;;;;;;;;;5070649;28;20086;-67
2021/09/28 05:00:32;;;;;;;14.50;5.43;;;;;;;;;;5070561;28;20496;-66
2021/09/28 05:07:36;;;;;;;13.95;5.32;;;;;;;;;;5111286;27;20405;-66
2021/09/28 05:10:03;;;;;;;17.63;5.97;;;;;;;;;;5111237;28;20089;-67
2021/09/28 05:12:29;;;;;;;13.27;6.40;;;;;;;;;;5110761;28;20028;-65
2021/09/28 05:16:34;;;;;;;13.88;6.63;;;;;;;;;;5111624;27;20466;-65
2021/09/28 05:19:37;;;;;;;11.38;4.93;;;;;;;;;;5069926;28;20432;-68
2021/09/28 05:28:15;;;;;;;13.43;7.53;;;;;;;;;;5099376;27;20469;-70
2021/09/28 05:30:44;;;;;;;16.35;8.93;;;;;;;;;;5095914;28;20479;-70
2021/09/28 05:33:27;;;;;;;14.93;6.22;;;;;;;;;;5054614;27;2109580;-69
2021/09/28 05:35:55;;;;;;;9.55;5.68;;;;;;;;;;5105189;28;20575;-70
2021/09/28 05:41:53;;;;;;;13.38;5.20;;;;;;;;;;5109429;27;20850;-69
2021/09/28 05:49:43;;;;;;;13.63;5.03;;;;;;;;;;5109000;27;20477;-70
2021/09/28 05:59:32;;;;;;;12.05;6.45;;;;;;;;;;5108751;27;20518;-71
2021/09/28 06:02:26;;;;;;;8.82;4.75;;;;;;;;;;5108494;27;20450;-72
2021/09/28 06:04:53;;;;;;;10.40;5.45;;;;;;;;;;5108514;28;20081;-71
2021/09/28 06:07:19;;;;;;;9.40;5.38;;;;;;;;;;5108749;28;20545;-71
2021/09/28 06:09:46;;;;;;;11.18;5.60;;;;;;;;;;5100353;28;20019;-71
2021/09/28 06:12:13;;;;;;;12.07;6.43;;;;;;;;;;5107572;28;20051;-70
2021/09/28 06:15:09;;;;;;;14.60;5.95;;;;;;;;;;5110354;27;20393;-69
2021/09/28 06:17:35;;;;;;;9.63;5.30;;;;;;;;;;5108946;28;20019;-70
2021/09/28 06:20:02;;;;;;;14.95;5.05;;;;;;;;;;5110302;28;20043;-68
2021/09/28 06:24:21;;;;;;;11.52;4.65;;;;;;;;;;5109415;27;20481;-70
2021/09/28 06:30:04;;;;;;;10.05;5.25;;;;;;;;;;5107493;27;20393;-69
2021/09/28 06:32:30;;;;;;;10.65;4.95;;;;;;;;;;5105980;28;20042;-70
2021/09/28 06:34:57;;;;;;;19.10;6.30;;;;;;;;;;5105667;28;20020;-69
2021/09/28 06:38:55;;;;;;;18.13;5.40;;;;;;;;;;5126724;27;20108;-71
2021/09/28 06:41:21;;;;;;;12.15;5.13;;;;;;;;;;5108486;28;20503;-70
2021/09/28 06:46:26;;;;;;;12.63;4.38;;;;;;;;;;5129424;27;20592;-69
2021/09/28 06:48:53;;;;;;;9.40;3.75;;;;;;;;;;5092061;28;20038;-69
2021/09/28 06:51:19;;;;;;;6.50;3.45;;;;;;;;;;5110363;28;20032;-70
2021/09/28 06:53:46;;;;;;;7.78;3.47;;;;;;;;;;5091765;28;20028;-69
2021/09/28 06:57:38;;;;;;;8.75;3.80;;;;;;;;;;5110193;27;20401;-69
2021/09/28 07:00:05;;;;;;;8.73;3.45;;;;;;;;;;5109991;28;20028;-69
2021/09/28 07:02:31;;;;;;;9.10;4.10;;;;;;;;;;5108988;28;20032;-70
2021/09/28 07:04:58;;;;;;;7.78;4.05;;;;;;;;;;5110200;28;20368;-71
2021/09/28 07:07:24;;;;;;;8.13;3.95;;;;;;;;;;5109434;28;20034;-69
2021/09/28 07:11:49;;;;;;;6.10;3.08;;;;;;;;;;5172396;27;20303;-68
2021/09/28 07:16:48;;;;;;;6.85;3.47;;;;;;;;;;5110494;27;20457;-70
2021/09/28 07:19:36;;;;;;;9.48;3.50;;;;;;;;;;5109793;27;20385;-66
2021/09/28 07:22:44;;;;;;;10.25;4.45;;;;;;;;;;5110075;27;20911;-68
2021/09/28 07:25:11;;;;;;;8.82;3.70;;;;;;;;;;5110588;28;20027;-68
2021/09/28 07:28:28;;;;;;;8.82;3.92;;;;;;;;;;5110329;27;20888;-70
2021/09/28 07:30:54;;;;;;;6.88;3.03;;;;;;;;;;5110342;28;20114;-69
2021/09/28 07:33:20;;;;;;;8.98;3.67;;;;;;;;;;5110433;28;20523;-70
2021/09/28 07:38:40;;;;;;;7.20;3.25;;;;;;;;;;5095649;27;20410;-73
2021/09/28 07:41:06;;;;;;;5.55;2.92;;;;;;;;;;5088939;28;20021;-71
2021/09/28 07:43:32;;;;;;;7.57;3.42;;;;;;;;;;5084449;28;20866;-68
2021/09/28 07:46:31;;;;;;;7.68;3.35;;;;;;;;;;5109499;27;20397;-68
2021/09/28 07:48:57;;;;;;;7.93;3.45;;;;;;;;;;5108769;28;20119;-70
2021/09/28 07:52:14;;;;;;;6.50;3.00;;;;;;;;;;5088420;27;20670;-68
2021/09/28 07:54:40;;;;;;;7.25;3.13;;;;;;;;;;5084541;28;20668;-68
2021/09/28 07:57:08;;;;;;;6.95;2.88;;;;;;;;;;5085856;28;20415;-70
2021/09/28 07:59:35;;;;;;;6.50;3.15;;;;;;;;;;5085231;28;20399;-69
2021/09/28 08:02:01;;;;;;;8.95;3.63;;;;;;;;;;5086629;28;20091;-69
2021/09/28 08:04:27;;;;;;;5.95;2.65;;;;;;;;;;5086204;28;20021;-69
2021/09/28 08:08:30;;;;;;;9.45;2.80;;;;;;;;;;5069136;28;20454;-67
2021/09/28 08:10:56;;;;;;;6.40;3.13;;;;;;;;;;5068601;28;20028;-67
2021/09/28 08:13:23;;;;;;;5.43;2.92;;;;;;;;;;5068366;28;20595;-68
2021/09/28 08:15:58;;;;;;;5.00;2.83;;;;;;;;;;5110139;27;20448;-67
2021/09/28 08:18:24;;;;;;;9.40;2.88;;;;;;;;;;5109936;28;20028;-68
2021/09/28 08:20:51;;;;;;;5.90;3.05;;;;;;;;;;5109037;28;20035;-68
2021/09/28 08:24:03;;;;;;;8.40;3.38;;;;;;;;;;5108121;27;20927;-68
2021/09/28 08:29:15;;;;;;;4.43;2.50;;;;;;;;;;5109469;28;20039;-69
2021/09/28 08:31:43;;;;;;;5.38;2.58;;;;;;;;;;5123624;28;20016;-66
2021/09/28 08:34:10;;;;;;;4.93;2.55;;;;;;;;;;5124366;28;20502;-67
2021/09/28 08:36:36;;;;;;;5.05;2.60;;;;;;;;;;5109032;28;20024;-66
2021/09/28 08:39:03;;;;;;;6.47;3.00;;;;;;;;;;5104802;28;20396;-67
2021/09/28 08:41:30;;;;;;;5.80;3.00;;;;;;;;;;5097598;28;20024;-67
2021/09/28 08:44:26;;;;;;;6.85;2.92;;;;;;;;;;5110266;27;20791;-65
2021/09/28 08:46:52;;;;;;;13.55;3.80;;;;;;;;;;5110131;28;20030;-68
2021/09/28 08:51:26;;;;;;;8.30;3.72;;;;;;;;;;5110150;27;20460;-71
2021/09/28 08:53:52;;;;;;;6.43;3.20;;;;;;;;;;5109230;28;20492;-72
2021/09/28 08:56:18;;;;;;;8.00;3.08;;;;;;;;;;5109184;28;20020;-70
2021/09/28 08:59:02;;;;;;;7.65;3.05;;;;;;;;;;5110279;28;20051;-69
2021/09/28 09:01:29;;;;;;;5.95;3.08;;;;;;;;;;5111636;28;20479;-69
2021/09/28 09:03:56;;;;;;;8.48;3.58;;;;;;;;;;5115899;28;20077;-71
2021/09/28 09:06:34;;;;;;;5.90;3.38;;;;;;;;;;5121375;28;20081;-68
2021/09/28 09:09:01;;;;;;;12.80;3.67;;;;;;;;;;5129632;28;20100;-70
2021/09/28 09:11:34;;;;;;;5.07;3.03;;;;;;;;;;5110235;28;20031;-70
2021/09/28 09:15:34;;;;;;;6.78;3.15;;;;;;;;;;5069553;28;20453;-71
2021/09/28 09:18:02;;;;;;;6.35;3.67;;;;;;;;;;5052055;28;20028;-68
2021/09/28 09:20:30;;;;;;;8.13;3.35;;;;;;;;;;5068048;28;20016;-65
2021/09/28 09:23:04;;;;;;;6.85;3.72;;;;;;;;;;5050530;28;20055;-66
2021/09/28 09:28:32;;;;;;;5.72;2.83;;;;;;;;;;5118366;27;20116;-66
2021/09/28 09:31:37;;;;;;;8.15;3.53;;;;;;;;;;5109250;28;20039;-68
2021/09/28 09:34:58;;;;;;;11.25;3.65;;;;;;;;;;5067686;28;20408;-69
2021/09/28 09:37:36;;;;;;;8.85;3.17;;;;;;;;;;5067957;28;20029;-65
2021/09/28 09:40:03;;;;;;;6.40;2.97;;;;;;;;;;5069118;28;20032;-66
2021/09/28 09:42:29;;;;;;;10.55;2.97;;;;;;;;;;5066985;28;20745;-67
2021/09/28 09:47:28;;;;;;;7.78;3.88;;;;;;;;;;5067970;28;20473;-67
2021/09/28 09:50:18;;;;;;;8.02;3.88;;;;;;;;;;5068129;28;20473;-65
2021/09/28 09:53:00;;;;;;;6.22;3.35;;;;;;;;;;5069510;28;20035;-67
2021/09/28 09:55:27;;;;;;;6.40;3.35;;;;;;;;;;5068291;28;20485;-70
2021/09/28 09:57:53;;;;;;;8.15;3.20;;;;;;;;;;5066820;28;20099;-70
2021/09/28 10:00:23;;;;;;;5.40;3.17;;;;;;;;;;5069001;28;20079;-69
2021/09/28 10:02:49;;;;;;;9.10;3.40;;;;;;;;;;5069104;28;20523;-71
2021/09/28 10:05:15;;;;;;;6.95;3.40;;;;;;;;;;5066967;28;20029;-70
2021/09/28 10:07:42;;;;;;;8.32;3.38;;;;;;;;;;5069361;28;20021;-72
2021/09/28 10:10:09;;;;;;;6.63;2.85;;;;;;;;;;5067569;28;20033;-70
2021/09/28 10:12:35;;;;;;;5.15;3.05;;;;;;;;;;5068814;28;20027;-70
2021/09/28 10:15:06;;;;;;;8.88;3.70;;;;;;;;;;5068283;28;20068;-71
2021/09/28 10:17:39;;;;;;;5.78;2.92;;;;;;;;;;5068918;28;20432;-69
2021/09/28 10:20:05;;;;;;;;;;;;;;;;;;5068546;28;20069;-71
2021/09/28 10:22:34;;;;;;;13.32;3.20;;;;;;;;;;5069758;28;19999;-71
2021/09/28 10:25:19;;;;;;;7.75;3.33;;;;;;;;;;5068028;28;20150;-69
2021/09/28 10:27:46;;;;;;;6.55;2.97;;;;;;;;;;5067994;28;20032;-69
2021/09/28 10:30:33;;;;;;;5.85;2.92;;;;;;;;;;5069410;28;20104;-69
2021/09/28 10:32:59;;;;;;;7.88;3.75;;;;;;;;;;5069065;28;20032;-69
2021/09/28 10:35:26;;;;;;;6.38;3.15;;;;;;;;;;5067833;28;20029;-68
2021/09/28 10:37:56;;;;;;;6.97;3.55;;;;;;;;;;5068610;28;20017;-67
2021/09/28 10:40:24;;;;;;;5.18;2.60;;;;;;;;;;5067313;28;20558;-68
2021/09/28 10:43:17;;;;;;;13.85;3.53;;;;;;;;;;5067389;28;20423;-70
2021/09/28 10:45:46;;;;;;;5.00;2.72;;;;;;;;;;5059960;28;20036;-69
2021/09/28 10:48:24;;;;;;;8.85;4.32;;;;;;;;;;5067267;28;20041;-70
2021/09/28 10:51:06;;;;;;;3.97;2.17;;;;;;;;;;5068705;28;20029;-68
2021/09/28 10:53:33;;;;;;;6.07;3.47;;;;;;;;;;5067888;28;20028;-69
2021/09/28 10:56:06;;;;;;;7.03;2.97;;;;;;;;;;5066510;28;20246;-69
2021/09/28 10:58:49;;;;;;;4.55;2.55;;;;;;;;;;5068582;28;20028;-71
2021/09/28 11:01:15;;;;;;;8.63;3.53;;;;;;;;;;5055880;28;20028;-70
2021/09/28 11:03:42;;;;;;;8.45;2.70;;;;;;;;;;5053429;28;20029;-70
2021/09/28 11:06:09;;;;;;;6.47;3.25;;;;;;;;;;5053306;28;20013;-71
2021/09/28 11:08:36;;;;;;;6.55;2.97;;;;;;;;;;5048975;28;20040;-73
2021/09/28 11:11:07;;;;;;;8.48;3.25;;;;;;;;;;5052668;28;20033;-71
2021/09/28 11:13:34;;;;;;;8.10;3.33;;;;;;;;;;5053913;28;20159;-70
2021/09/28 11:16:01;;;;;;;6.85;3.20;;;;;;;;;;5052707;28;20112;-72
2021/09/28 11:18:27;;;;;;;5.75;2.78;;;;;;;;;;5053403;28;20477;-71
2021/09/28 11:20:54;;;;;;;5.78;2.78;;;;;;;;;;5053615;28;20500;-72
2021/09/28 11:23:20;;;;;;;4.95;2.72;;;;;;;;;;5054501;28;20021;-72
2021/09/28 11:25:53;;;;;;;5.05;2.75;;;;;;;;;;5054811;28;20028;-71
2021/09/28 11:28:21;;;;;;;6.97;2.92;;;;;;;;;;5054739;28;20029;-69
2021/09/28 11:30:55;;;;;;;11.35;3.15;;;;;;;;;;5053457;28;20099;-72
2021/09/28 11:33:22;;;;;;;6.70;3.20;;;;;;;;;;5049961;28;20037;-74
2021/09/28 11:36:01;;;;;;;6.60;3.25;;;;;;;;;;5054304;28;20572;-71
2021/09/28 11:38:29;;;;;;;8.80;3.67;;;;;;;;;;5051980;28;20501;-68
2021/09/28 11:41:07;;;;;;;7.60;3.22;;;;;;;;;;5053293;28;20056;-65
2021/09/28 11:43:35;;;;;;;10.32;3.03;;;;;;;;;;5054861;28;20021;-66
2021/09/28 11:46:02;;;;;;;9.75;3.55;;;;;;;;;;5053374;28;20024;-65
2021/09/28 11:48:29;;;;;;;8.32;3.95;;;;;;;;;;5051929;28;20053;-65
2021/09/28 11:50:56;;;;;;;6.65;3.08;;;;;;;;;;5046611;28;20584;-66
2021/09/28 11:53:22;;;;;;;7.60;3.40;;;;;;;;;;5054456;28;20061;-66
2021/09/28 11:55:48;;;;;;;6.10;3.20;;;;;;;;;;5047749;28;20025;-65
2021/09/28 11:58:14;;;;;;;6.80;3.20;;;;;;;;;;5053525;28;20025;-69
2021/09/28 12:00:44;;;;;;;8.05;3.35;;;;;;;;;;5054473;28;20053;-66
2021/09/28 12:03:11;;;;;;;5.60;2.78;;;;;;;;;;5054312;28;20024;-65
2021/09/28 12:08:21;;;;;;;7.30;3.25;;;;;;;;;;5054367;28;20033;-65
2021/09/28 12:10:47;;;;;;;7.28;3.30;;;;;;;;;;5053774;28;20466;-68
2021/09/28 12:13:14;;;;;;;6.20;2.65;;;;;;;;;;5053117;28;20036;-67
2021/09/28 12:15:59;;;;;;;6.15;2.72;;;;;;;;;;5053703;28;20028;-67
2021/09/28 12:18:25;;;;;;;6.85;3.58;;;;;;;;;;5052533;28;20078;-66
2021/09/28 12:20:51;;;;;;;5.50;2.50;;;;;;;;;;5053422;28;20021;-67
2021/09/28 12:23:17;;;;;;;5.88;2.75;;;;;;;;;;5051387;28;20021;-67
2021/09/28 12:25:45;;;;;;;4.75;2.40;;;;;;;;;;5051643;28;20017;-67
2021/09/28 12:28:17;;;;;;;7.55;3.38;;;;;;;;;;5050679;28;20556;-67
2021/09/28 12:30:58;;;;;;;8.80;3.10;;;;;;;;;;5053000;28;20028;-69
2021/09/28 12:33:24;;;;;;;4.63;2.25;;;;;;;;;;5053729;28;20032;-65
2021/09/28 12:35:58;;;;;;;5.85;3.03;;;;;;;;;;5053694;28;20036;-68
2021/09/28 12:38:24;;;;;;;7.75;2.95;;;;;;;;;;5053517;28;20094;-68
2021/09/28 12:40:50;;;;;;;7.00;2.88;;;;;;;;;;5053721;28;20021;-67
2021/09/28 12:43:18;;;;;;;7.35;2.90;;;;;;;;;;5053262;28;20032;-68
2021/09/28 12:45:55;;;;;;;7.28;3.72;;;;;;;;;;5048036;28;21089;-68
2021/09/28 12:48:38;;;;;;;14.70;3.53;;;;;;;;;;5052237;28;20071;-68
2021/09/28 12:51:04;;;;;;;;;;;;;;;;;;5052472;28;20040;-68
2021/09/28 12:53:30;;;;;;;11.10;3.38;;;;;;;;;;5051731;28;19905;-68
2021/09/28 12:55:56;;;;;;;6.28;3.50;;;;;;;;;;5051924;28;20100;-68
2021/09/28 12:58:23;;;;;;;7.22;3.03;;;;;;;;;;5052966;28;20486;-69
2021/09/28 13:00:50;;;;;;;8.85;3.90;;;;;;;;;;5053556;28;20021;-68
2021/09/28 13:03:18;;;;;;;7.25;3.22;;;;;;;;;;5050874;28;20028;-67
2021/09/28 13:05:56;;;;;;;10.77;3.80;;;;;;;;;;5051465;28;20517;-68
2021/09/28 13:08:24;;;;;;;7.75;3.60;;;;;;;;;;5052089;28;20514;-69
2021/09/28 13:10:51;;;;;;;8.05;3.80;;;;;;;;;;5052601;28;20485;-69
2021/09/28 13:13:17;;;;;;;13.43;4.50;;;;;;;;;;5052170;28;20482;-68
2021/09/28 13:15:44;;;;;;;11.80;4.40;;;;;;;;;;5052563;28;20588;-69
2021/09/28 13:18:10;;;;;;;14.10;4.05;;;;;;;;;;5052914;28;20048;-68
2021/09/28 13:20:36;;;;;;;11.95;4.68;;;;;;;;;;5052989;28;20032;-68
2021/09/28 13:23:03;;;;;;;10.63;4.55;;;;;;;;;;5053006;28;20021;-68
2021/09/28 13:25:29;;;;;;;9.25;4.40;;;;;;;;;;5053227;28;20377;-68
2021/09/28 13:27:58;;;;;;;9.75;4.20;;;;;;;;;;5052891;28;20021;-68
2021/09/28 13:30:24;;;;;;;12.75;5.53;;;;;;;;;;5051917;28;20025;-68
2021/09/28 13:35:04;;;;;;;19.75;8.00;;;;;;;;;;5110785;27;20458;-69
2021/09/28 13:37:31;;;;;;;15.52;6.57;;;;;;;;;;5111044;28;20038;-69
2021/09/28 13:39:57;;;;;;;21.25;6.07;;;;;;;;;;5110965;28;20099;-69
2021/09/28 13:42:23;;;;;;;15.35;6.10;;;;;;;;;;5110686;28;20026;-69
2021/09/28 13:44:49;;;;;;;10.77;6.68;;;;;;;;;;5111103;28;20016;-69
2021/09/28 13:47:16;;;;;;;12.00;6.65;;;;;;;;;;5108796;28;20031;-69
2021/09/28 13:49:42;;;;;;;12.55;5.78;;;;;;;;;;5110640;28;20065;-69
2021/09/28 13:52:08;;;;;;;16.85;7.15;;;;;;;;;;5110868;28;20098;-69
2021/09/28 13:54:35;;;;;;;14.30;7.90;;;;;;;;;;5110985;28;20113;-68
2021/09/28 13:57:01;;;;;;;21.13;7.35;;;;;;;;;;5110924;28;20020;-68
2021/09/28 13:59:27;;;;;;;18.92;9.50;;;;;;;;;;5110744;28;20480;-69
2021/09/28 14:01:53;;;;;;;20.10;8.93;;;;;;;;;;5110293;28;20028;-70
2021/09/28 14:05:22;;;;;;;13.38;6.43;;;;;;;;;;5070698;27;20391;-69
2021/09/28 14:07:48;;;;;;;10.18;5.97;;;;;;;;;;5070831;28;20079;-69
2021/09/28 14:10:15;;;;;;;11.30;6.30;;;;;;;;;;5068878;28;20436;-69
2021/09/28 14:12:41;;;;;;;23.33;6.50;;;;;;;;;;5070544;28;20032;-69
2021/09/28 14:15:08;;;;;;;12.32;5.90;;;;;;;;;;5070495;28;20056;-69
2021/09/28 14:18:57;;;;;;;10.90;6.47;;;;;;;;;;5131673;27;20313;-67
2021/09/28 14:21:24;;;;;;;10.45;5.60;;;;;;;;;;5111098;28;20054;-70
2021/09/28 14:23:50;;;;;;;12.18;5.65;;;;;;;;;;5110916;28;20484;-70
2021/09/28 14:26:16;;;;;;;11.45;6.18;;;;;;;;;;5092812;28;20027;-70
2021/09/28 14:28:43;;;;;;;8.68;5.30;;;;;;;;;;5110921;28;20403;-69
2021/09/28 14:31:11;;;;;;;10.45;6.50;;;;;;;;;;5110704;28;20464;-70
2021/09/28 14:33:38;;;;;;;15.75;7.32;;;;;;;;;;5110845;28;20476;-70
2021/09/28 14:36:04;;;;;;;13.02;7.15;;;;;;;;;;5110806;28;20016;-70
2021/09/28 14:40:26;;;;;;;12.85;5.85;;;;;;;;;;5111767;27;20453;-70
2021/09/28 14:42:52;;;;;;;12.90;6.57;;;;;;;;;;5111494;28;20035;-70
2021/09/28 14:45:18;;;;;;;21.55;7.60;;;;;;;;;;5110791;28;20023;-69
2021/09/28 14:47:45;;;;;;;10.55;6.40;;;;;;;;;;5111502;28;20020;-70
2021/09/28 14:53:12;;;;;;;11.75;6.90;;;;;;;;;;5111598;27;20517;-69
2021/09/28 14:57:38;;;;;;;12.30;7.47;;;;;;;;;;5111430;27;20904;-70
2021/09/28 15:02:04;;;;;;;10.82;5.75;;;;;;;;;;5108122;27;20517;-70
2021/09/28 15:04:30;;;;;;;13.00;6.18;;;;;;;;;;5131078;28;20034;-69
2021/09/28 15:06:56;;;;;;;10.90;6.15;;;;;;;;;;5129370;28;20047;-69
2021/09/28 15:09:23;;;;;;;12.30;7.72;;;;;;;;;;5129968;28;20064;-69
2021/09/28 15:11:49;;;;;;;15.48;8.30;;;;;;;;;;5131389;28;20023;-70
2021/09/28 15:14:15;;;;;;;24.52;12.10;;;;;;;;;;5130888;28;20031;-70
2021/09/28 15:17:34;;;;;;;25.63;12.82;;;;;;;;;;5111271;27;20442;-69
2021/09/28 15:20:01;;;;;;;19.95;11.27;;;;;;;;;;5110643;28;20099;-69
2021/09/28 15:22:27;;;;;;;18.25;9.55;;;;;;;;;;5110929;28;20365;-69
2021/09/28 15:25:08;;;;;;;13.10;6.63;;;;;;;;;;5070854;28;20392;-69
2021/09/28 15:27:43;;;;;;;11.45;6.72;;;;;;;;;;5070275;28;20418;-70
2021/09/28 15:30:11;;;;;;;13.05;7.00;;;;;;;;;;5068980;28;20033;-71
2021/09/28 15:32:39;;;;;;;12.40;6.85;;;;;;;;;;5064930;28;20047;-69
2021/09/28 15:36:51;;;;;;;10.50;6.32;;;;;;;;;;5111247;27;21013;-70
2021/09/28 15:39:17;;;;;;;10.98;5.95;;;;;;;;;;5109768;28;20533;-70
2021/09/28 15:41:43;;;;;;;10.93;6.32;;;;;;;;;;5109413;28;20024;-70
2021/09/28 15:44:10;;;;;;;12.32;7.20;;;;;;;;;;5109691;28;20115;-70
2021/09/28 15:46:36;;;;;;;13.00;6.85;;;;;;;;;;5109620;28;20431;-70
2021/09/28 15:49:03;;;;;;;38.33;26.45;;;;;;;;;;5110567;28;20069;-70
2021/09/28 15:52:13;;;;;;;237.73;217.70;;;;;;;;;;5111868;27;20516;-70
2021/09/28 15:54:39;;;;;;;12.40;7.53;;;;;;;;;;5110654;28;20081;-71
2021/09/28 15:57:05;;;;;;;10.80;6.95;;;;;;;;;;5109779;28;20024;-70
2021/09/28 15:59:31;;;;;;;13.38;8.00;;;;;;;;;;5107987;28;20024;-71
2021/09/28 16:01:58;;;;;;;14.35;7.70;;;;;;;;;;5108615;28;20435;-70
2021/09/28 16:06:09;;;;;;;12.40;7.65;;;;;;;;;;5128804;27;20323;-69
2021/09/28 16:10:55;;;;;;;14.80;7.95;;;;;;;;;;5090952;27;20493;-70
2021/09/28 16:14:01;;;;;;;21.83;12.88;;;;;;;;;;5122681;27;20406;-69
2021/09/28 16:16:27;;;;;;;17.83;9.55;;;;;;;;;;5088609;28;20090;-70
2021/09/28 16:18:54;;;;;;;16.95;11.02;;;;;;;;;;5087421;28;20524;-69
2021/09/28 16:21:20;;;;;;;17.77;10.30;;;;;;;;;;5088835;28;20012;-68
2021/09/28 16:26:01;;;;;;;17.70;12.68;;;;;;;;;;5120308;27;20404;-69
2021/09/28 16:28:28;;;;;;;16.00;10.68;;;;;;;;;;5089565;28;20033;-69
2021/09/28 16:30:54;;;;;;;16.70;10.70;;;;;;;;;;5089290;28;20059;-69
2021/09/28 16:34:24;;;;;;;14.73;9.63;;;;;;;;;;5109751;27;20330;-69
2021/09/28 16:38:44;;;;;;;13.88;8.95;;;;;;;;;;5076796;28;20376;-69
2021/09/28 16:42:23;;;;;;;15.15;8.82;;;;;;;;;;5082374;27;20490;-69
2021/09/28 16:44:49;;;;;;;15.18;9.82;;;;;;;;;;5050407;28;20029;-69
2021/09/28 16:47:15;;;;;;;14.20;9.48;;;;;;;;;;5050506;28;20087;-69
2021/09/28 16:54:52;;;;;;;14.45;9.85;;;;;;;;;;5122780;27;20493;-69
2021/09/28 16:57:18;;;;;;;15.80;9.57;;;;;;;;;;5090836;28;20051;-69
2021/09/28 17:01:20;;;;;;;16.08;10.32;;;;;;;;;;5120566;27;20480;-70
2021/09/28 17:04:26;;;;;;;15.30;9.48;;;;;;;;;;5122681;27;20924;-69
2021/09/28 17:07:44;;;;;;;11.63;8.40;;;;;;;;;;5122680;27;20397;-69
2021/09/28 17:10:10;;;;;;;15.10;9.45;;;;;;;;;;5090801;28;20029;-69
2021/09/28 17:12:59;;;;;;;12.00;9.23;;;;;;;;;;5081607;27;20392;-70
2021/09/28 17:17:50;;;;;;;15.35;9.32;;;;;;;;;;5109884;27;20849;-69
2021/09/28 17:22:06;;;;;;;15.82;9.77;;;;;;;;;;5111827;27;20524;-69
2021/09/28 17:24:32;;;;;;;15.77;9.70;;;;;;;;;;5111132;28;20024;-69